Terminal Aerodrome Forecast
Issued by NWS

Home | Current Version | Previous Version | Text Only | Print | Product List | Glossary On
Versions: 1 2 3 4 5 6 7 8 9 10 11 12 13 14 15 16 17 18 19 20 21 22 23 24 25 26 27
000
FTUS44 KBMX 030520
TAFEET
TAF
KEET 030520Z 0306/0406 27004KT 2SM BR VCSH BKN005
      TEMPO 0306/0310 1SM BR BKN003
     FM031500 32007KT P6SM BKN015
     FM031800 31009KT P6SM BKN040
     FM040000 32008KT P6SM FEW200=

USA.gov is the U.S. government's official web portal to all federal, state and local government web resources and services.